sensor_id;sensor_type;location;lat;lon;timestamp;P1;P4;P2;P0;N10;N4;N25;N1;N05;TS
62702;SPS30;66022;50.448;18.122;2023-03-25T00:01:57;8.37;;7.62;;;;;;;
62702;SPS30;66022;50.448;18.122;2023-03-25T00:06:03;7.41;;7.32;;;;;;;
62702;SPS30;66022;50.448;18.122;2023-03-25T00:10:06;7.41;;7.32;;;;;;;
62702;SPS30;66022;50.448;18.122;2023-03-25T00:14:10;7.41;;7.32;;;;;;;
62702;SPS30;66022;50.448;18.122;2023-03-25T00:18:19;8.03;;7.93;;;;;;;
62702;SPS30;66022;50.448;18.122;2023-03-25T00:22:17;8.03;;7.93;;;;;;;
62702;SPS30;66022;50.448;18.122;2023-03-25T00:26:21;5.07;;5.07;;;;;;;
62702;SPS30;66022;50.448;18.122;2023-03-25T00:30:25;5.07;;5.07;;;;;;;
62702;SPS30;66022;50.448;18.122;2023-03-25T00:34:29;5.07;;5.07;;;;;;;
62702;SPS30;66022;50.448;18.122;2023-03-25T00:38:34;7.94;;7.49;;;;;;;
62702;SPS30;66022;50.448;18.122;2023-03-25T00:42:37;7.94;;7.49;;;;;;;
62702;SPS30;66022;50.448;18.122;2023-03-25T00:46:41;5.38;;5.21;;;;;;;
62702;SPS30;66022;50.448;18.122;2023-03-25T00:50:45;5.38;;5.21;;;;;;;
62702;SPS30;66022;50.448;18.122;2023-03-25T00:54:49;6.06;;5.41;;;;;;;
62702;SPS30;66022;50.448;18.122;2023-03-25T00:58:53;6.06;;5.41;;;;;;;
62702;SPS30;66022;50.448;18.122;2023-03-25T01:02:57;6.06;;5.41;;;;;;;
62702;SPS30;66022;50.448;18.122;2023-03-25T01:07:01;6.79;;6.52;;;;;;;
62702;SPS30;66022;50.448;18.122;2023-03-25T01:11:05;6.79;;6.52;;;;;;;
62702;SPS30;66022;50.448;18.122;2023-03-25T01:15:09;6.15;;5.69;;;;;;;
62702;SPS30;66022;50.448;18.122;2023-03-25T01:19:13;6.15;;5.69;;;;;;;
62702;SPS30;66022;50.448;18.122;2023-03-25T01:23:17;6.15;;5.69;;;;;;;
62702;SPS30;66022;50.448;18.122;2023-03-25T01:27:21;5.13;;4.95;;;;;;;
62702;SPS30;66022;50.448;18.122;2023-03-25T01:31:25;5.13;;4.95;;;;;;;
62702;SPS30;66022;50.448;18.122;2023-03-25T01:35:29;4.82;;4.74;;;;;;;
62702;SPS30;66022;50.448;18.122;2023-03-25T01:39:33;4.82;;4.74;;;;;;;
62702;SPS30;66022;50.448;18.122;2023-03-25T01:43:37;4.82;;4.74;;;;;;;
62702;SPS30;66022;50.448;18.122;2023-03-25T01:47:41;6.55;;5.86;;;;;;;
62702;SPS30;66022;50.448;18.122;2023-03-25T01:51:45;6.55;;5.86;;;;;;;
62702;SPS30;66022;50.448;18.122;2023-03-25T01:55:49;4.82;;4.60;;;;;;;
62702;SPS30;66022;50.448;18.122;2023-03-25T01:59:53;4.82;;4.60;;;;;;;
62702;SPS30;66022;50.448;18.122;2023-03-25T02:03:57;4.82;;4.60;;;;;;;
62702;SPS30;66022;50.448;18.122;2023-03-25T02:08:03;5.59;;5.06;;;;;;;
62702;SPS30;66022;50.448;18.122;2023-03-25T02:12:05;5.59;;5.06;;;;;;;
62702;SPS30;66022;50.448;18.122;2023-03-25T02:48:43;7.95;;7.69;;;;;;;
62702;SPS30;66022;50.448;18.122;2023-03-25T02:52:46;7.95;;7.69;;;;;;;
62702;SPS30;66022;50.448;18.122;2023-03-25T02:56:49;8.98;;8.63;;;;;;;
62702;SPS30;66022;50.448;18.122;2023-03-25T03:00:53;8.98;;8.63;;;;;;;
62702;SPS30;66022;50.448;18.122;2023-03-25T03:04:57;7.43;;7.22;;;;;;;
62702;SPS30;66022;50.448;18.122;2023-03-25T03:09:06;7.43;;7.22;;;;;;;
62702;SPS30;66022;50.448;18.122;2023-03-25T03:21:17;6.98;;6.49;;;;;;;
62702;SPS30;66022;50.448;18.122;2023-03-25T03:37:33;12.71;;11.99;;;;;;;
62702;SPS30;66022;50.448;18.122;2023-03-25T03:41:34;12.71;;11.99;;;;;;;
62702;SPS30;66022;50.448;18.122;2023-03-25T03:45:38;8.27;;8.07;;;;;;;
62702;SPS30;66022;50.448;18.122;2023-03-25T03:49:42;8.27;;8.07;;;;;;;
62702;SPS30;66022;50.448;18.122;2023-03-25T03:57:50;10.21;;9.04;;;;;;;
62702;SPS30;66022;50.448;18.122;2023-03-25T04:01:54;10.21;;9.04;;;;;;;
62702;SPS30;66022;50.448;18.122;2023-03-25T04:06:00;9.35;;9.35;;;;;;;
62702;SPS30;66022;50.448;18.122;2023-03-25T04:14:05;9.35;;9.35;;;;;;;
62702;SPS30;66022;50.448;18.122;2023-03-25T04:18:09;10.84;;10.77;;;;;;;
62702;SPS30;66022;50.448;18.122;2023-03-25T04:22:14;10.84;;10.77;;;;;;;
62702;SPS30;66022;50.448;18.122;2023-03-25T04:26:17;11.26;;11.15;;;;;;;
62702;SPS30;66022;50.448;18.122;2023-03-25T04:30:21;11.26;;11.15;;;;;;;
62702;SPS30;66022;50.448;18.122;2023-03-25T04:34:26;11.26;;11.15;;;;;;;
62702;SPS30;66022;50.448;18.122;2023-03-25T04:38:29;12.82;;12.82;;;;;;;
62702;SPS30;66022;50.448;18.122;2023-03-25T04:42:33;12.82;;12.82;;;;;;;
62702;SPS30;66022;50.448;18.122;2023-03-25T04:46:37;14.60;;14.60;;;;;;;
62702;SPS30;66022;50.448;18.122;2023-03-25T04:50:41;14.60;;14.60;;;;;;;
62702;SPS30;66022;50.448;18.122;2023-03-25T04:54:45;14.26;;14.26;;;;;;;
62702;SPS30;66022;50.448;18.122;2023-03-25T04:58:49;14.26;;14.26;;;;;;;
62702;SPS30;66022;50.448;18.122;2023-03-25T05:02:54;14.26;;14.26;;;;;;;
62702;SPS30;66022;50.448;18.122;2023-03-25T05:06:57;14.78;;14.78;;;;;;;
62702;SPS30;66022;50.448;18.122;2023-03-25T05:11:01;14.78;;14.78;;;;;;;
62702;SPS30;66022;50.448;18.122;2023-03-25T05:15:07;14.67;;13.67;;;;;;;
62702;SPS30;66022;50.448;18.122;2023-03-25T05:19:09;14.67;;13.67;;;;;;;
62702;SPS30;66022;50.448;18.122;2023-03-25T05:23:13;14.67;;13.67;;;;;;;
62702;SPS30;66022;50.448;18.122;2023-03-25T05:27:18;15.74;;14.63;;;;;;;
62702;SPS30;66022;50.448;18.122;2023-03-25T05:31:21;15.74;;14.63;;;;;;;
62702;SPS30;66022;50.448;18.122;2023-03-25T05:35:25;10.94;;10.37;;;;;;;
62702;SPS30;66022;50.448;18.122;2023-03-25T05:39:31;10.94;;10.37;;;;;;;
62702;SPS30;66022;50.448;18.122;2023-03-25T05:43:33;10.94;;10.37;;;;;;;
62702;SPS30;66022;50.448;18.122;2023-03-25T05:47:37;11.18;;11.06;;;;;;;
62702;SPS30;66022;50.448;18.122;2023-03-25T05:51:41;11.18;;11.06;;;;;;;
62702;SPS30;66022;50.448;18.122;2023-03-25T05:55:45;11.50;;11.14;;;;;;;
62702;SPS30;66022;50.448;18.122;2023-03-25T05:59:49;11.50;;11.14;;;;;;;
62702;SPS30;66022;50.448;18.122;2023-03-25T06:03:53;11.50;;11.14;;;;;;;
62702;SPS30;66022;50.448;18.122;2023-03-25T06:07:57;9.70;;9.70;;;;;;;
62702;SPS30;66022;50.448;18.122;2023-03-25T06:12:07;9.70;;9.70;;;;;;;
62702;SPS30;66022;50.448;18.122;2023-03-25T06:20:13;10.06;;10.00;;;;;;;
62702;SPS30;66022;50.448;18.122;2023-03-25T06:24:13;10.06;;10.00;;;;;;;
62702;SPS30;66022;50.448;18.122;2023-03-25T06:28:17;9.82;;9.47;;;;;;;
62702;SPS30;66022;50.448;18.122;2023-03-25T06:32:21;9.82;;9.47;;;;;;;
62702;SPS30;66022;50.448;18.122;2023-03-25T06:36:26;8.15;;8.15;;;;;;;
62702;SPS30;66022;50.448;18.122;2023-03-25T06:40:29;8.15;;8.15;;;;;;;
62702;SPS30;66022;50.448;18.122;2023-03-25T06:44:33;8.15;;8.15;;;;;;;
62702;SPS30;66022;50.448;18.122;2023-03-25T06:48:37;10.74;;10.53;;;;;;;
62702;SPS30;66022;50.448;18.122;2023-03-25T06:52:41;10.74;;10.53;;;;;;;
62702;SPS30;66022;50.448;18.122;2023-03-25T06:56:45;11.79;;11.79;;;;;;;
62702;SPS30;66022;50.448;18.122;2023-03-25T07:00:53;11.79;;11.79;;;;;;;
62702;SPS30;66022;50.448;18.122;2023-03-25T07:04:53;12.53;;12.29;;;;;;;
62702;SPS30;66022;50.448;18.122;2023-03-25T07:08:57;12.53;;12.29;;;;;;;
62702;SPS30;66022;50.448;18.122;2023-03-25T07:13:01;12.53;;12.29;;;;;;;
62702;SPS30;66022;50.448;18.122;2023-03-25T07:17:05;10.94;;10.94;;;;;;;
62702;SPS30;66022;50.448;18.122;2023-03-25T07:21:09;10.94;;10.94;;;;;;;
62702;SPS30;66022;50.448;18.122;2023-03-25T07:25:13;7.96;;7.75;;;;;;;
62702;SPS30;66022;50.448;18.122;2023-03-25T07:29:19;7.96;;7.75;;;;;;;
62702;SPS30;66022;50.448;18.122;2023-03-25T07:33:21;7.96;;7.75;;;;;;;
62702;SPS30;66022;50.448;18.122;2023-03-25T07:37:25;5.93;;5.93;;;;;;;
62702;SPS30;66022;50.448;18.122;2023-03-25T07:41:29;5.93;;5.93;;;;;;;
62702;SPS30;66022;50.448;18.122;2023-03-25T07:45:33;7.88;;7.35;;;;;;;
62702;SPS30;66022;50.448;18.122;2023-03-25T07:49:37;7.88;;7.35;;;;;;;
62702;SPS30;66022;50.448;18.122;2023-03-25T07:53:41;7.88;;7.35;;;;;;;
62702;SPS30;66022;50.448;18.122;2023-03-25T07:57:45;6.17;;5.54;;;;;;;
62702;SPS30;66022;50.448;18.122;2023-03-25T08:01:49;6.17;;5.54;;;;;;;
62702;SPS30;66022;50.448;18.122;2023-03-25T08:05:53;5.89;;5.89;;;;;;;
62702;SPS30;66022;50.448;18.122;2023-03-25T08:09:57;5.89;;5.89;;;;;;;
62702;SPS30;66022;50.448;18.122;2023-03-25T08:14:01;5.89;;5.89;;;;;;;
62702;SPS30;66022;50.448;18.122;2023-03-25T08:18:05;6.95;;6.95;;;;;;;
62702;SPS30;66022;50.448;18.122;2023-03-25T08:22:09;6.95;;6.95;;;;;;;
62702;SPS30;66022;50.448;18.122;2023-03-25T08:26:13;4.10;;3.90;;;;;;;
62702;SPS30;66022;50.448;18.122;2023-03-25T08:30:17;4.10;;3.90;;;;;;;
62702;SPS30;66022;50.448;18.122;2023-03-25T08:34:21;4.10;;3.90;;;;;;;
62702;SPS30;66022;50.448;18.122;2023-03-25T08:38:25;3.92;;3.92;;;;;;;
62702;SPS30;66022;50.448;18.122;2023-03-25T08:42:29;3.92;;3.92;;;;;;;
62702;SPS30;66022;50.448;18.122;2023-03-25T08:46:33;4.39;;4.22;;;;;;;
62702;SPS30;66022;50.448;18.122;2023-03-25T08:50:37;4.39;;4.22;;;;;;;
62702;SPS30;66022;50.448;18.122;2023-03-25T08:54:41;5.33;;5.33;;;;;;;
62702;SPS30;66022;50.448;18.122;2023-03-25T08:58:45;5.33;;5.33;;;;;;;
62702;SPS30;66022;50.448;18.122;2023-03-25T09:02:49;5.33;;5.33;;;;;;;
62702;SPS30;66022;50.448;18.122;2023-03-25T09:06:53;4.59;;4.59;;;;;;;
62702;SPS30;66022;50.448;18.122;2023-03-25T09:10:57;4.59;;4.59;;;;;;;
62702;SPS30;66022;50.448;18.122;2023-03-25T09:15:01;4.12;;4.12;;;;;;;
62702;SPS30;66022;50.448;18.122;2023-03-25T09:19:05;4.12;;4.12;;;;;;;
62702;SPS30;66022;50.448;18.122;2023-03-25T09:23:09;4.12;;4.12;;;;;;;
62702;SPS30;66022;50.448;18.122;2023-03-25T09:27:13;3.59;;3.59;;;;;;;
62702;SPS30;66022;50.448;18.122;2023-03-25T09:31:17;3.59;;3.59;;;;;;;
62702;SPS30;66022;50.448;18.122;2023-03-25T09:35:24;3.54;;3.54;;;;;;;
62702;SPS30;66022;50.448;18.122;2023-03-25T09:39:25;3.54;;3.54;;;;;;;
62702;SPS30;66022;50.448;18.122;2023-03-25T09:47:33;3.85;;3.58;;;;;;;
62702;SPS30;66022;50.448;18.122;2023-03-25T09:51:37;3.85;;3.58;;;;;;;
62702;SPS30;66022;50.448;18.122;2023-03-25T09:55:42;3.51;;3.51;;;;;;;
62702;SPS30;66022;50.448;18.122;2023-03-25T09:59:49;3.51;;3.51;;;;;;;
62702;SPS30;66022;50.448;18.122;2023-03-25T10:16:05;2.81;;2.81;;;;;;;
62702;SPS30;66022;50.448;18.122;2023-03-25T10:20:10;2.81;;2.81;;;;;;;
62702;SPS30;66022;50.448;18.122;2023-03-25T10:28:18;3.12;;2.90;;;;;;;
62702;SPS30;66022;50.448;18.122;2023-03-25T10:40:29;3.97;;3.53;;;;;;;
62702;SPS30;66022;50.448;18.122;2023-03-25T10:44:29;3.97;;3.53;;;;;;;
62702;SPS30;66022;50.448;18.122;2023-03-25T10:48:33;3.13;;3.13;;;;;;;
62702;SPS30;66022;50.448;18.122;2023-03-25T10:52:37;3.13;;3.13;;;;;;;
62702;SPS30;66022;50.448;18.122;2023-03-25T10:56:43;4.09;;3.81;;;;;;;
62702;SPS30;66022;50.448;18.122;2023-03-25T11:00:46;4.09;;3.81;;;;;;;
62702;SPS30;66022;50.448;18.122;2023-03-25T11:04:51;4.09;;4.09;;;;;;;
62702;SPS30;66022;50.448;18.122;2023-03-25T11:08:57;4.09;;4.09;;;;;;;
62702;SPS30;66022;50.448;18.122;2023-03-25T11:12:57;4.09;;4.09;;;;;;;
62702;SPS30;66022;50.448;18.122;2023-03-25T11:17:02;3.40;;3.40;;;;;;;
62702;SPS30;66022;50.448;18.122;2023-03-25T11:21:06;3.40;;3.40;;;;;;;
62702;SPS30;66022;50.448;18.122;2023-03-25T11:29:15;3.80;;3.47;;;;;;;
62702;SPS30;66022;50.448;18.122;2023-03-25T11:33:17;3.80;;3.47;;;;;;;
62702;SPS30;66022;50.448;18.122;2023-03-25T11:37:22;4.14;;3.45;;;;;;;
62702;SPS30;66022;50.448;18.122;2023-03-25T11:41:29;4.14;;3.45;;;;;;;
62702;SPS30;66022;50.448;18.122;2023-03-25T11:45:36;2.28;;2.28;;;;;;;
62702;SPS30;66022;50.448;18.122;2023-03-25T11:49:34;2.28;;2.28;;;;;;;
62702;SPS30;66022;50.448;18.122;2023-03-25T11:53:41;2.28;;2.28;;;;;;;
62702;SPS30;66022;50.448;18.122;2023-03-25T11:57:41;2.41;;2.41;;;;;;;
62702;SPS30;66022;50.448;18.122;2023-03-25T12:01:46;2.41;;2.41;;;;;;;
62702;SPS30;66022;50.448;18.122;2023-03-25T12:09:54;2.11;;2.11;;;;;;;
62702;SPS30;66022;50.448;18.122;2023-03-25T12:14:06;2.11;;2.11;;;;;;;
62702;SPS30;66022;50.448;18.122;2023-03-25T12:26:16;1.40;;1.40;;;;;;;
62702;SPS30;66022;50.448;18.122;2023-03-25T12:34:23;1.40;;1.40;;;;;;;
62702;SPS30;66022;50.448;18.122;2023-03-25T12:38:40;2.24;;2.13;;;;;;;
62702;SPS30;66022;50.448;18.122;2023-03-25T12:50:41;1.26;;1.26;;;;;;;
62702;SPS30;66022;50.448;18.122;2023-03-25T13:06:56;1.51;;1.30;;;;;;;
62702;SPS30;66022;50.448;18.122;2023-03-25T13:19:05;1.44;;1.44;;;;;;;
62702;SPS30;66022;50.448;18.122;2023-03-25T13:23:07;1.44;;1.44;;;;;;;
62702;SPS30;66022;50.448;18.122;2023-03-25T13:27:10;2.23;;1.91;;;;;;;
62702;SPS30;66022;50.448;18.122;2023-03-25T13:31:18;2.23;;1.91;;;;;;;
62702;SPS30;66022;50.448;18.122;2023-03-25T13:39:24;1.43;;1.26;;;;;;;
62702;SPS30;66022;50.448;18.122;2023-03-25T13:43:30;1.43;;1.26;;;;;;;
62702;SPS30;66022;50.448;18.122;2023-03-25T13:47:36;1.56;;1.36;;;;;;;
62702;SPS30;66022;50.448;18.122;2023-03-25T13:51:33;1.56;;1.36;;;;;;;
62702;SPS30;66022;50.448;18.122;2023-03-25T13:55:38;1.20;;1.20;;;;;;;
62702;SPS30;66022;50.448;18.122;2023-03-25T14:03:52;1.20;;1.20;;;;;;;
62702;SPS30;66022;50.448;18.122;2023-03-25T14:16:02;2.52;;2.39;;;;;;;
62702;SPS30;66022;50.448;18.122;2023-03-25T14:20:02;2.52;;2.39;;;;;;;
62702;SPS30;66022;50.448;18.122;2023-03-25T14:28:11;1.77;;1.77;;;;;;;
62702;SPS30;66022;50.448;18.122;2023-03-25T14:36:19;2.99;;2.45;;;;;;;
62702;SPS30;66022;50.448;18.122;2023-03-25T14:44:26;2.99;;2.45;;;;;;;
62702;SPS30;66022;50.448;18.122;2023-03-25T14:52:37;2.33;;2.12;;;;;;;
62702;SPS30;66022;50.448;18.122;2023-03-25T14:56:41;2.59;;2.30;;;;;;;
62702;SPS30;66022;50.448;18.122;2023-03-25T15:00:43;2.59;;2.30;;;;;;;
62702;SPS30;66022;50.448;18.122;2023-03-25T15:04:50;1.48;;1.48;;;;;;;
62702;SPS30;66022;50.448;18.122;2023-03-25T15:08:53;1.48;;1.48;;;;;;;
62702;SPS30;66022;50.448;18.122;2023-03-25T15:16:58;2.62;;2.16;;;;;;;
62702;SPS30;66022;50.448;18.122;2023-03-25T15:25:13;2.04;;1.90;;;;;;;
62702;SPS30;66022;50.448;18.122;2023-03-25T15:45:35;2.40;;2.07;;;;;;;
62702;SPS30;66022;50.448;18.122;2023-03-25T15:53:39;2.40;;2.07;;;;;;;
62702;SPS30;66022;50.448;18.122;2023-03-25T16:01:42;3.25;;2.70;;;;;;;
62702;SPS30;66022;50.448;18.122;2023-03-25T16:05:46;4.97;;4.28;;;;;;;
62702;SPS30;66022;50.448;18.122;2023-03-25T16:09:49;4.97;;4.28;;;;;;;
62702;SPS30;66022;50.448;18.122;2023-03-25T16:17:57;27.04;;19.78;;;;;;;
62702;SPS30;66022;50.448;18.122;2023-03-25T16:22:02;27.04;;19.78;;;;;;;
62702;SPS30;66022;50.448;18.122;2023-03-25T16:26:06;2.18;;2.18;;;;;;;
62702;SPS30;66022;50.448;18.122;2023-03-25T16:34:14;2.18;;2.18;;;;;;;
62702;SPS30;66022;50.448;18.122;2023-03-25T16:38:18;2.55;;2.08;;;;;;;
62702;SPS30;66022;50.448;18.122;2023-03-25T16:46:25;1.65;;1.45;;;;;;;
62702;SPS30;66022;50.448;18.122;2023-03-25T16:50:29;1.65;;1.45;;;;;;;
62702;SPS30;66022;50.448;18.122;2023-03-25T16:54:35;1.65;;1.45;;;;;;;
62702;SPS30;66022;50.448;18.122;2023-03-25T16:58:47;1.87;;1.75;;;;;;;
62702;SPS30;66022;50.448;18.122;2023-03-25T17:02:42;1.87;;1.75;;;;;;;
62702;SPS30;66022;50.448;18.122;2023-03-25T17:06:46;5.54;;4.88;;;;;;;
62702;SPS30;66022;50.448;18.122;2023-03-25T17:10:58;5.54;;4.88;;;;;;;
62702;SPS30;66022;50.448;18.122;2023-03-25T17:18:58;4.75;;4.24;;;;;;;
62702;SPS30;66022;50.448;18.122;2023-03-25T17:23:05;4.75;;4.24;;;;;;;
62702;SPS30;66022;50.448;18.122;2023-03-25T17:27:16;2.91;;2.86;;;;;;;
62702;SPS30;66022;50.448;18.122;2023-03-25T17:35:18;5.99;;4.67;;;;;;;
62702;SPS30;66022;50.448;18.122;2023-03-25T17:39:22;5.99;;4.67;;;;;;;
62702;SPS30;66022;50.448;18.122;2023-03-25T17:43:22;5.99;;4.67;;;;;;;
62702;SPS30;66022;50.448;18.122;2023-03-25T17:47:26;3.86;;3.78;;;;;;;
62702;SPS30;66022;50.448;18.122;2023-03-25T17:51:30;3.86;;3.78;;;;;;;
62702;SPS30;66022;50.448;18.122;2023-03-25T17:55:34;4.72;;4.42;;;;;;;
62702;SPS30;66022;50.448;18.122;2023-03-25T17:59:38;4.72;;4.42;;;;;;;
62702;SPS30;66022;50.448;18.122;2023-03-25T18:03:42;4.72;;4.42;;;;;;;
62702;SPS30;66022;50.448;18.122;2023-03-25T18:07:46;6.58;;5.49;;;;;;;
62702;SPS30;66022;50.448;18.122;2023-03-25T18:11:50;6.58;;5.49;;;;;;;
62702;SPS30;66022;50.448;18.122;2023-03-25T18:15:55;5.27;;4.90;;;;;;;
62702;SPS30;66022;50.448;18.122;2023-03-25T18:19:57;5.27;;4.90;;;;;;;
62702;SPS30;66022;50.448;18.122;2023-03-25T18:24:02;5.27;;4.90;;;;;;;
62702;SPS30;66022;50.448;18.122;2023-03-25T18:28:06;10.23;;9.41;;;;;;;
62702;SPS30;66022;50.448;18.122;2023-03-25T18:32:10;10.23;;9.41;;;;;;;
62702;SPS30;66022;50.448;18.122;2023-03-25T18:36:18;12.76;;10.96;;;;;;;
62702;SPS30;66022;50.448;18.122;2023-03-25T18:40:22;12.76;;10.96;;;;;;;
62702;SPS30;66022;50.448;18.122;2023-03-25T18:44:27;12.76;;10.96;;;;;;;
62702;SPS30;66022;50.448;18.122;2023-03-25T18:48:27;17.10;;13.05;;;;;;;
62702;SPS30;66022;50.448;18.122;2023-03-25T18:52:33;17.10;;13.05;;;;;;;
62702;SPS30;66022;50.448;18.122;2023-03-25T18:56:34;16.82;;15.20;;;;;;;
62702;SPS30;66022;50.448;18.122;2023-03-25T19:00:38;16.82;;15.20;;;;;;;
62702;SPS30;66022;50.448;18.122;2023-03-25T19:04:42;16.82;;15.20;;;;;;;
62702;SPS30;66022;50.448;18.122;2023-03-25T19:08:46;23.04;;20.73;;;;;;;
62702;SPS30;66022;50.448;18.122;2023-03-25T19:12:50;23.04;;20.73;;;;;;;
62702;SPS30;66022;50.448;18.122;2023-03-25T19:15:31;29.37;;27.73;;;;;;;
62702;SPS30;66022;50.448;18.122;2023-03-25T19:19:39;29.37;;27.73;;;;;;;
62702;SPS30;66022;50.448;18.122;2023-03-25T19:23:47;29.37;;27.73;;;;;;;
62702;SPS30;66022;50.448;18.122;2023-03-25T19:27:54;19.24;;17.51;;;;;;;
62702;SPS30;66022;50.448;18.122;2023-03-25T19:32:03;19.24;;17.51;;;;;;;
62702;SPS30;66022;50.448;18.122;2023-03-25T19:36:12;16.70;;14.30;;;;;;;
62702;SPS30;66022;50.448;18.122;2023-03-25T19:40:19;16.70;;14.30;;;;;;;
62702;SPS30;66022;50.448;18.122;2023-03-25T19:44:26;7.38;;6.67;;;;;;;
62702;SPS30;66022;50.448;18.122;2023-03-25T19:48:34;7.38;;6.67;;;;;;;
62702;SPS30;66022;50.448;18.122;2023-03-25T19:52:43;7.38;;6.67;;;;;;;
62702;SPS30;66022;50.448;18.122;2023-03-25T19:56:51;7.28;;5.91;;;;;;;
62702;SPS30;66022;50.448;18.122;2023-03-25T20:00:59;7.28;;5.91;;;;;;;
62702;SPS30;66022;50.448;18.122;2023-03-25T20:05:07;3.14;;2.82;;;;;;;
62702;SPS30;66022;50.448;18.122;2023-03-25T20:09:15;3.14;;2.82;;;;;;;
62702;SPS30;66022;50.448;18.122;2023-03-25T20:13:23;3.14;;2.82;;;;;;;
62702;SPS30;66022;50.448;18.122;2023-03-25T20:17:31;3.48;;2.85;;;;;;;
62702;SPS30;66022;50.448;18.122;2023-03-25T20:21:39;3.48;;2.85;;;;;;;
62702;SPS30;66022;50.448;18.122;2023-03-25T20:25:48;2.25;;2.13;;;;;;;
62702;SPS30;66022;50.448;18.122;2023-03-25T20:29:57;2.25;;2.13;;;;;;;
62702;SPS30;66022;50.448;18.122;2023-03-25T20:34:03;2.25;;2.13;;;;;;;
62702;SPS30;66022;50.448;18.122;2023-03-25T20:38:11;3.45;;2.81;;;;;;;
62702;SPS30;66022;50.448;18.122;2023-03-25T20:42:21;3.45;;2.81;;;;;;;
62702;SPS30;66022;50.448;18.122;2023-03-25T20:46:27;2.16;;2.16;;;;;;;
62702;SPS30;66022;50.448;18.122;2023-03-25T20:50:35;2.16;;2.16;;;;;;;
62702;SPS30;66022;50.448;18.122;2023-03-25T20:54:43;3.44;;3.12;;;;;;;
62702;SPS30;66022;50.448;18.122;2023-03-25T20:58:51;3.44;;3.12;;;;;;;
62702;SPS30;66022;50.448;18.122;2023-03-25T21:02:59;3.44;;3.12;;;;;;;
62702;SPS30;66022;50.448;18.122;2023-03-25T21:07:07;3.92;;3.50;;;;;;;
62702;SPS30;66022;50.448;18.122;2023-03-25T21:11:15;3.92;;3.50;;;;;;;
62702;SPS30;66022;50.448;18.122;2023-03-25T21:15:23;3.60;;3.30;;;;;;;
62702;SPS30;66022;50.448;18.122;2023-03-25T21:19:32;3.60;;3.30;;;;;;;
62702;SPS30;66022;50.448;18.122;2023-03-25T21:23:39;3.60;;3.30;;;;;;;
62702;SPS30;66022;50.448;18.122;2023-03-25T21:27:48;3.75;;3.75;;;;;;;
62702;SPS30;66022;50.448;18.122;2023-03-25T21:31:55;3.75;;3.75;;;;;;;
62702;SPS30;66022;50.448;18.122;2023-03-25T21:36:03;5.78;;5.17;;;;;;;
62702;SPS30;66022;50.448;18.122;2023-03-25T21:40:11;5.78;;5.17;;;;;;;
62702;SPS30;66022;50.448;18.122;2023-03-25T21:44:19;4.35;;4.35;;;;;;;
62702;SPS30;66022;50.448;18.122;2023-03-25T21:48:27;4.35;;4.35;;;;;;;
62702;SPS30;66022;50.448;18.122;2023-03-25T21:52:38;4.35;;4.35;;;;;;;
62702;SPS30;66022;50.448;18.122;2023-03-25T21:56:43;5.68;;5.52;;;;;;;
62702;SPS30;66022;50.448;18.122;2023-03-25T22:00:51;5.68;;5.52;;;;;;;
62702;SPS30;66022;50.448;18.122;2023-03-25T22:04:59;4.65;;4.65;;;;;;;
62702;SPS30;66022;50.448;18.122;2023-03-25T22:09:07;4.65;;4.65;;;;;;;
62702;SPS30;66022;50.448;18.122;2023-03-25T22:13:18;4.65;;4.65;;;;;;;
62702;SPS30;66022;50.448;18.122;2023-03-25T22:17:23;5.30;;5.30;;;;;;;
62702;SPS30;66022;50.448;18.122;2023-03-25T22:21:31;5.30;;5.30;;;;;;;
62702;SPS30;66022;50.448;18.122;2023-03-25T22:25:39;6.01;;6.01;;;;;;;
62702;SPS30;66022;50.448;18.122;2023-03-25T22:29:47;6.01;;6.01;;;;;;;
62702;SPS30;66022;50.448;18.122;2023-03-25T22:33:58;6.01;;6.01;;;;;;;
62702;SPS30;66022;50.448;18.122;2023-03-25T22:38:03;5.59;;5.59;;;;;;;
62702;SPS30;66022;50.448;18.122;2023-03-25T22:42:11;5.59;;5.59;;;;;;;
62702;SPS30;66022;50.448;18.122;2023-03-25T22:46:19;6.46;;6.46;;;;;;;
62702;SPS30;66022;50.448;18.122;2023-03-25T22:50:27;6.46;;6.46;;;;;;;
62702;SPS30;66022;50.448;18.122;2023-03-25T22:54:35;5.88;;5.88;;;;;;;
62702;SPS30;66022;50.448;18.122;2023-03-25T22:58:43;5.88;;5.88;;;;;;;
62702;SPS30;66022;50.448;18.122;2023-03-25T23:02:51;5.88;;5.88;;;;;;;
62702;SPS30;66022;50.448;18.122;2023-03-25T23:06:59;8.30;;7.90;;;;;;;
62702;SPS30;66022;50.448;18.122;2023-03-25T23:11:11;8.30;;7.90;;;;;;;
62702;SPS30;66022;50.448;18.122;2023-03-25T23:15:15;7.82;;7.29;;;;;;;
62702;SPS30;66022;50.448;18.122;2023-03-25T23:19:23;7.82;;7.29;;;;;;;
62702;SPS30;66022;50.448;18.122;2023-03-25T23:23:31;7.82;;7.29;;;;;;;
62702;SPS30;66022;50.448;18.122;2023-03-25T23:27:39;10.82;;10.19;;;;;;;
62702;SPS30;66022;50.448;18.122;2023-03-25T23:31:47;10.82;;10.19;;;;;;;
62702;SPS30;66022;50.448;18.122;2023-03-25T23:35:58;9.88;;9.88;;;;;;;
62702;SPS30;66022;50.448;18.122;2023-03-25T23:40:03;9.88;;9.88;;;;;;;
62702;SPS30;66022;50.448;18.122;2023-03-25T23:44:11;7.96;;7.96;;;;;;;
62702;SPS30;66022;50.448;18.122;2023-03-25T23:48:19;7.96;;7.96;;;;;;;
62702;SPS30;66022;50.448;18.122;2023-03-25T23:52:27;7.96;;7.96;;;;;;;
62702;SPS30;66022;50.448;18.122;2023-03-25T23:56:35;7.80;;7.48;;;;;;;
